sensor_id;sensor_type;location;lat;lon;timestamp;pressure;altitude;pressure_sealevel;temperature;humidity
50933;BME280;36921;49.006;9.292;2022-09-21T00:03:29;99599.09;;;4.67;100.00
50933;BME280;36921;49.006;9.292;2022-09-21T00:06:04;99602.81;;;4.56;100.00
50933;BME280;36921;49.006;9.292;2022-09-21T00:08:30;99598.72;;;4.52;100.00
50933;BME280;36921;49.006;9.292;2022-09-21T00:10:55;99610.69;;;4.57;100.00
50933;BME280;36921;49.006;9.292;2022-09-21T00:13:21;99603.06;;;4.53;100.00
50933;BME280;36921;49.006;9.292;2022-09-21T00:15:46;99612.53;;;4.47;100.00
50933;BME280;36921;49.006;9.292;2022-09-21T00:18:12;99610.44;;;4.51;100.00
50933;BME280;36921;49.006;9.292;2022-09-21T00:20:40;99598.63;;;4.34;100.00
50933;BME280;36921;49.006;9.292;2022-09-21T00:23:07;99594.56;;;4.30;100.00
50933;BME280;36921;49.006;9.292;2022-09-21T00:25:33;99600.28;;;4.45;100.00
50933;BME280;36921;49.006;9.292;2022-09-21T00:27:58;99585.09;;;4.26;100.00
50933;BME280;36921;49.006;9.292;2022-09-21T00:30:23;99605.69;;;4.35;100.00
50933;BME280;36921;49.006;9.292;2022-09-21T00:32:48;99608.19;;;4.46;100.00
50933;BME280;36921;49.006;9.292;2022-09-21T00:35:14;99607.34;;;4.36;100.00
50933;BME280;36921;49.006;9.292;2022-09-21T00:37:39;99603.13;;;4.43;100.00
50933;BME280;36921;49.006;9.292;2022-09-21T00:40:04;99610.88;;;4.36;100.00
50933;BME280;36921;49.006;9.292;2022-09-21T00:42:32;99616.53;;;4.33;100.00
50933;BME280;36921;49.006;9.292;2022-09-21T00:44:58;99610.03;;;4.36;100.00
50933;BME280;36921;49.006;9.292;2022-09-21T00:47:29;99607.06;;;4.39;100.00
50933;BME280;36921;49.006;9.292;2022-09-21T00:49:58;99607.22;;;4.28;100.00
50933;BME280;36921;49.006;9.292;2022-09-21T00:52:26;99610.75;;;4.28;100.00
50933;BME280;36921;49.006;9.292;2022-09-21T00:55:20;99617.41;;;4.14;100.00
50933;BME280;36921;49.006;9.292;2022-09-21T00:57:48;99614.44;;;4.08;100.00
50933;BME280;36921;49.006;9.292;2022-09-21T01:00:16;99618.22;;;4.05;100.00
50933;BME280;36921;49.006;9.292;2022-09-21T01:02:41;99607.69;;;3.94;100.00
50933;BME280;36921;49.006;9.292;2022-09-21T01:05:08;99586.13;;;3.86;100.00
50933;BME280;36921;49.006;9.292;2022-09-21T01:07:36;99616.56;;;4.04;100.00
50933;BME280;36921;49.006;9.292;2022-09-21T01:10:06;99596.25;;;4.02;100.00
50933;BME280;36921;49.006;9.292;2022-09-21T01:12:45;99616.97;;;4.09;100.00
50933;BME280;36921;49.006;9.292;2022-09-21T01:23:19;99610.63;;;4.01;100.00
50933;BME280;36921;49.006;9.292;2022-09-21T01:31:48;99614.72;;;4.05;100.00
50933;BME280;36921;49.006;9.292;2022-09-21T01:34:27;99623.03;;;4.11;100.00
50933;BME280;36921;49.006;9.292;2022-09-21T01:36:57;99626.84;;;4.09;100.00
50933;BME280;36921;49.006;9.292;2022-09-21T01:39:25;99623.75;;;4.04;100.00
50933;BME280;36921;49.006;9.292;2022-09-21T01:41:53;99600.75;;;3.82;100.00
50933;BME280;36921;49.006;9.292;2022-09-21T01:44:26;99608.50;;;3.85;100.00
50933;BME280;36921;49.006;9.292;2022-09-21T01:46:55;99618.66;;;3.81;100.00
50933;BME280;36921;49.006;9.292;2022-09-21T01:49:30;99614.72;;;3.76;100.00
50933;BME280;36921;49.006;9.292;2022-09-21T01:52:05;99612.19;;;3.84;100.00
50933;BME280;36921;49.006;9.292;2022-09-21T01:54:41;99612.19;;;3.84;100.00
50933;BME280;36921;49.006;9.292;2022-09-21T02:00:00;99603.72;;;3.79;100.00
50933;BME280;36921;49.006;9.292;2022-09-21T02:02:33;99609.50;;;3.84;100.00
50933;BME280;36921;49.006;9.292;2022-09-21T02:05:01;99611.91;;;3.87;100.00
50933;BME280;36921;49.006;9.292;2022-09-21T02:07:29;99609.94;;;3.89;100.00
50933;BME280;36921;49.006;9.292;2022-09-21T02:09:56;99614.13;;;3.72;100.00
50933;BME280;36921;49.006;9.292;2022-09-21T02:12:21;99609.06;;;3.59;100.00
50933;BME280;36921;49.006;9.292;2022-09-21T02:14:48;99612.75;;;3.68;100.00
50933;BME280;36921;49.006;9.292;2022-09-21T02:17:42;99612.56;;;3.50;100.00
50933;BME280;36921;49.006;9.292;2022-09-21T02:20:29;99611.13;;;3.36;100.00
50933;BME280;36921;49.006;9.292;2022-09-21T02:25:43;99599.03;;;3.42;100.00
50933;BME280;36921;49.006;9.292;2022-09-21T02:30:58;99598.91;;;3.53;100.00
50933;BME280;36921;49.006;9.292;2022-09-21T02:33:31;99590.44;;;3.48;100.00
50933;BME280;36921;49.006;9.292;2022-09-21T02:36:07;99588.53;;;3.69;100.00
50933;BME280;36921;49.006;9.292;2022-09-21T02:38:39;99591.19;;;3.79;100.00
50933;BME280;36921;49.006;9.292;2022-09-21T02:43:50;99594.25;;;3.45;100.00
50933;BME280;36921;49.006;9.292;2022-09-21T02:48:51;99603.81;;;3.28;100.00
50933;BME280;36921;49.006;9.292;2022-09-21T02:51:28;99603.28;;;3.44;100.00
50933;BME280;36921;49.006;9.292;2022-09-21T02:53:55;99599.16;;;3.31;100.00
50933;BME280;36921;49.006;9.292;2022-09-21T02:56:22;99602.53;;;3.33;100.00
50933;BME280;36921;49.006;9.292;2022-09-21T02:58:53;99598.81;;;3.14;100.00
50933;BME280;36921;49.006;9.292;2022-09-21T03:01:21;99606.25;;;3.01;100.00
50933;BME280;36921;49.006;9.292;2022-09-21T03:03:47;99600.44;;;2.96;100.00
50933;BME280;36921;49.006;9.292;2022-09-21T03:06:13;99605.94;;;2.94;100.00
50933;BME280;36921;49.006;9.292;2022-09-21T03:08:38;99613.38;;;2.91;100.00
50933;BME280;36921;49.006;9.292;2022-09-21T03:11:04;99608.28;;;2.88;100.00
50933;BME280;36921;49.006;9.292;2022-09-21T03:13:30;99616.47;;;2.86;100.00
50933;BME280;36921;49.006;9.292;2022-09-21T03:16:00;99609.84;;;2.80;100.00
50933;BME280;36921;49.006;9.292;2022-09-21T03:18:26;99613.97;;;2.94;100.00
50933;BME280;36921;49.006;9.292;2022-09-21T03:20:52;99609.28;;;2.87;100.00
50933;BME280;36921;49.006;9.292;2022-09-21T03:23:17;99613.19;;;2.82;100.00
50933;BME280;36921;49.006;9.292;2022-09-21T03:25:43;99614.91;;;2.83;100.00
50933;BME280;36921;49.006;9.292;2022-09-21T03:28:10;99621.22;;;2.82;100.00
50933;BME280;36921;49.006;9.292;2022-09-21T03:30:37;99620.38;;;2.82;100.00
50933;BME280;36921;49.006;9.292;2022-09-21T03:33:03;99628.00;;;2.87;100.00
50933;BME280;36921;49.006;9.292;2022-09-21T03:35:30;99628.84;;;2.87;100.00
50933;BME280;36921;49.006;9.292;2022-09-21T03:37:55;99631.38;;;2.89;100.00
50933;BME280;36921;49.006;9.292;2022-09-21T03:40:22;99628.44;;;2.92;100.00
50933;BME280;36921;49.006;9.292;2022-09-21T03:42:47;99632.06;;;2.91;100.00
50933;BME280;36921;49.006;9.292;2022-09-21T03:45:13;99632.97;;;3.01;100.00
50933;BME280;36921;49.006;9.292;2022-09-21T03:47:38;99633.13;;;3.09;100.00
50933;BME280;36921;49.006;9.292;2022-09-21T03:50:05;99627.38;;;3.14;100.00
50933;BME280;36921;49.006;9.292;2022-09-21T03:52:31;99629.81;;;3.26;100.00
50933;BME280;36921;49.006;9.292;2022-09-21T03:54:58;99620.25;;;3.24;100.00
50933;BME280;36921;49.006;9.292;2022-09-21T03:57:23;99623.88;;;3.13;100.00
50933;BME280;36921;49.006;9.292;2022-09-21T03:59:49;99625.81;;;3.01;100.00
50933;BME280;36921;49.006;9.292;2022-09-21T04:02:15;99628.44;;;2.92;100.00
50933;BME280;36921;49.006;9.292;2022-09-21T04:04:40;99621.81;;;2.86;100.00
50933;BME280;36921;49.006;9.292;2022-09-21T04:07:06;99630.97;;;2.93;100.00
50933;BME280;36921;49.006;9.292;2022-09-21T04:09:31;99622.09;;;2.93;100.00
50933;BME280;36921;49.006;9.292;2022-09-21T04:11:56;99626.28;;;2.85;100.00
50933;BME280;36921;49.006;9.292;2022-09-21T04:14:22;99628.22;;;2.74;100.00
50933;BME280;36921;49.006;9.292;2022-09-21T04:16:48;99632.19;;;2.79;100.00
50933;BME280;36921;49.006;9.292;2022-09-21T04:19:14;99627.09;;;2.76;100.00
50933;BME280;36921;49.006;9.292;2022-09-21T04:21:40;99627.19;;;2.65;100.00
50933;BME280;36921;49.006;9.292;2022-09-21T04:24:31;99632.53;;;2.65;100.00
50933;BME280;36921;49.006;9.292;2022-09-21T04:26:56;99602.72;;;2.39;100.00
50933;BME280;36921;49.006;9.292;2022-09-21T04:29:21;99622.72;;;2.45;100.00
50933;BME280;36921;49.006;9.292;2022-09-21T04:31:47;99607.66;;;2.44;100.00
50933;BME280;36921;49.006;9.292;2022-09-21T04:34:12;99622.50;;;2.57;100.00
50933;BME280;36921;49.006;9.292;2022-09-21T04:36:38;99640.13;;;2.70;100.00
50933;BME280;36921;49.006;9.292;2022-09-21T04:39:04;99644.50;;;2.71;100.00
50933;BME280;36921;49.006;9.292;2022-09-21T04:41:30;99644.19;;;2.64;100.00
50933;BME280;36921;49.006;9.292;2022-09-21T04:43:55;99647.84;;;2.63;100.00
50933;BME280;36921;49.006;9.292;2022-09-21T04:46:20;99614.69;;;2.45;100.00
50933;BME280;36921;49.006;9.292;2022-09-21T04:48:46;99628.97;;;2.55;100.00
50933;BME280;36921;49.006;9.292;2022-09-21T04:51:13;99635.47;;;2.62;100.00
50933;BME280;36921;49.006;9.292;2022-09-21T04:53:40;99659.34;;;2.84;100.00
50933;BME280;36921;49.006;9.292;2022-09-21T04:56:07;99642.56;;;2.73;100.00
50933;BME280;36921;49.006;9.292;2022-09-21T04:58:32;99655.47;;;2.68;100.00
50933;BME280;36921;49.006;9.292;2022-09-21T05:00:58;99653.91;;;2.65;100.00
50933;BME280;36921;49.006;9.292;2022-09-21T05:03:25;99638.84;;;2.64;100.00
50933;BME280;36921;49.006;9.292;2022-09-21T05:05:55;99629.31;;;2.71;100.00
50933;BME280;36921;49.006;9.292;2022-09-21T05:08:22;99657.84;;;2.92;100.00
50933;BME280;36921;49.006;9.292;2022-09-21T05:11:09;99663.75;;;2.95;100.00
50933;BME280;36921;49.006;9.292;2022-09-21T05:13:37;99638.63;;;2.77;100.00
50933;BME280;36921;49.006;9.292;2022-09-21T05:16:02;99670.22;;;2.93;100.00
50933;BME280;36921;49.006;9.292;2022-09-21T05:18:27;99663.19;;;2.92;100.00
50933;BME280;36921;49.006;9.292;2022-09-21T05:20:54;99649.38;;;2.87;100.00
50933;BME280;36921;49.006;9.292;2022-09-21T05:23:20;99651.06;;;2.88;100.00
50933;BME280;36921;49.006;9.292;2022-09-21T05:25:46;99665.19;;;2.99;100.00
50933;BME280;36921;49.006;9.292;2022-09-21T05:28:11;99653.78;;;2.97;100.00
50933;BME280;36921;49.006;9.292;2022-09-21T05:30:37;99645.09;;;3.05;100.00
50933;BME280;36921;49.006;9.292;2022-09-21T05:33:03;99658.06;;;3.10;100.00
50933;BME280;36921;49.006;9.292;2022-09-21T05:38:28;99648.44;;;3.38;100.00
50933;BME280;36921;49.006;9.292;2022-09-21T05:40:53;99641.94;;;4.86;100.00
50933;BME280;36921;49.006;9.292;2022-09-21T05:43:19;99648.91;;;6.69;100.00
50933;BME280;36921;49.006;9.292;2022-09-21T05:45:47;99639.19;;;8.04;100.00
50933;BME280;36921;49.006;9.292;2022-09-21T05:48:22;99640.44;;;9.23;95.84
50933;BME280;36921;49.006;9.292;2022-09-21T05:59:22;99640.38;;;12.54;75.11
50933;BME280;36921;49.006;9.292;2022-09-21T06:05:14;99624.44;;;13.76;62.90
50933;BME280;36921;49.006;9.292;2022-09-21T06:07:39;99642.69;;;13.89;59.14
50933;BME280;36921;49.006;9.292;2022-09-21T06:10:09;99635.59;;;14.01;59.36
50933;BME280;36921;49.006;9.292;2022-09-21T06:12:36;99610.75;;;14.38;59.80
50933;BME280;36921;49.006;9.292;2022-09-21T06:15:02;99613.94;;;14.68;59.01
50933;BME280;36921;49.006;9.292;2022-09-21T06:17:27;99633.88;;;15.60;56.92
50933;BME280;36921;49.006;9.292;2022-09-21T06:19:53;99622.34;;;16.03;56.77
50933;BME280;36921;49.006;9.292;2022-09-21T06:22:18;99637.06;;;16.34;53.67
50933;BME280;36921;49.006;9.292;2022-09-21T06:24:44;99643.19;;;16.93;52.83
50933;BME280;36921;49.006;9.292;2022-09-21T06:27:09;99621.09;;;17.86;51.22
50933;BME280;36921;49.006;9.292;2022-09-21T06:29:34;99623.97;;;17.18;49.78
50933;BME280;36921;49.006;9.292;2022-09-21T06:32:01;99640.13;;;17.81;50.24
50933;BME280;36921;49.006;9.292;2022-09-21T06:34:26;99640.16;;;18.11;48.16
50933;BME280;36921;49.006;9.292;2022-09-21T06:36:52;99624.38;;;18.79;47.29
50933;BME280;36921;49.006;9.292;2022-09-21T06:39:17;99633.69;;;19.01;45.62
50933;BME280;36921;49.006;9.292;2022-09-21T06:41:42;99642.38;;;19.98;44.18
50933;BME280;36921;49.006;9.292;2022-09-21T06:44:08;99625.38;;;20.58;44.17
50933;BME280;36921;49.006;9.292;2022-09-21T06:46:33;99627.75;;;19.80;44.52
50933;BME280;36921;49.006;9.292;2022-09-21T06:48:58;99641.09;;;20.17;44.42
50933;BME280;36921;49.006;9.292;2022-09-21T06:51:24;99636.66;;;19.12;45.70
50933;BME280;36921;49.006;9.292;2022-09-21T06:53:53;99643.44;;;18.86;47.24
50933;BME280;36921;49.006;9.292;2022-09-21T06:56:19;99621.97;;;20.22;44.96
50933;BME280;36921;49.006;9.292;2022-09-21T06:58:44;99615.19;;;20.42;43.18
50933;BME280;36921;49.006;9.292;2022-09-21T07:01:12;99635.84;;;21.29;42.51
50933;BME280;36921;49.006;9.292;2022-09-21T07:03:39;99633.88;;;21.63;40.48
50933;BME280;36921;49.006;9.292;2022-09-21T07:06:05;99621.19;;;21.23;40.80
50933;BME280;36921;49.006;9.292;2022-09-21T07:08:31;99641.28;;;21.84;39.57
50933;BME280;36921;49.006;9.292;2022-09-21T07:10:58;99637.81;;;21.50;39.24
50933;BME280;36921;49.006;9.292;2022-09-21T07:13:25;99634.31;;;21.99;40.35
50933;BME280;36921;49.006;9.292;2022-09-21T07:15:50;99636.16;;;21.49;39.85
50933;BME280;36921;49.006;9.292;2022-09-21T07:18:15;99631.06;;;23.26;37.42
50933;BME280;36921;49.006;9.292;2022-09-21T07:20:41;99635.00;;;23.82;37.04
50933;BME280;36921;49.006;9.292;2022-09-21T07:23:14;99633.81;;;22.88;38.83
50933;BME280;36921;49.006;9.292;2022-09-21T07:25:41;99631.06;;;23.26;38.48
50933;BME280;36921;49.006;9.292;2022-09-21T07:28:08;99615.47;;;22.40;38.67
50933;BME280;36921;49.006;9.292;2022-09-21T07:30:33;99618.94;;;22.94;38.04
50933;BME280;36921;49.006;9.292;2022-09-21T07:32:59;99629.91;;;22.52;39.08
50933;BME280;36921;49.006;9.292;2022-09-21T07:35:24;99624.75;;;22.61;39.01
50933;BME280;36921;49.006;9.292;2022-09-21T07:37:50;99636.00;;;23.66;37.30
50933;BME280;36921;49.006;9.292;2022-09-21T07:40:15;99620.25;;;23.14;38.21
50933;BME280;36921;49.006;9.292;2022-09-21T07:42:40;99636.38;;;23.85;37.97
50933;BME280;36921;49.006;9.292;2022-09-21T07:45:06;99622.72;;;25.08;36.41
50933;BME280;36921;49.006;9.292;2022-09-21T07:47:31;99635.16;;;25.36;36.43
50933;BME280;36921;49.006;9.292;2022-09-21T07:49:57;99620.41;;;26.65;34.56
50933;BME280;36921;49.006;9.292;2022-09-21T07:52:22;99615.94;;;27.04;33.98
50933;BME280;36921;49.006;9.292;2022-09-21T07:54:47;99635.34;;;26.70;33.99
50933;BME280;36921;49.006;9.292;2022-09-21T07:57:13;99619.34;;;26.91;33.47
50933;BME280;36921;49.006;9.292;2022-09-21T07:59:57;99621.22;;;27.29;32.77
50933;BME280;36921;49.006;9.292;2022-09-21T08:02:23;99617.47;;;26.52;33.57
50933;BME280;36921;49.006;9.292;2022-09-21T08:04:49;99627.47;;;26.48;33.75
50933;BME280;36921;49.006;9.292;2022-09-21T08:07:14;99635.25;;;27.14;33.66
50933;BME280;36921;49.006;9.292;2022-09-21T08:09:40;99631.84;;;26.93;33.66
50933;BME280;36921;49.006;9.292;2022-09-21T08:12:06;99638.22;;;28.19;33.04
50933;BME280;36921;49.006;9.292;2022-09-21T08:14:33;99631.75;;;27.32;32.44
50933;BME280;36921;49.006;9.292;2022-09-21T08:16:58;99636.66;;;26.38;35.28
50933;BME280;36921;49.006;9.292;2022-09-21T08:19:24;99621.63;;;26.88;33.82
50933;BME280;36921;49.006;9.292;2022-09-21T08:21:50;99631.19;;;25.68;35.86
50933;BME280;36921;49.006;9.292;2022-09-21T08:24:16;99638.00;;;27.19;33.91
50933;BME280;36921;49.006;9.292;2022-09-21T08:26:41;99633.31;;;27.92;33.28
50933;BME280;36921;49.006;9.292;2022-09-21T08:29:06;99640.84;;;27.91;32.79
50933;BME280;36921;49.006;9.292;2022-09-21T08:31:32;99623.09;;;28.49;32.24
50933;BME280;36921;49.006;9.292;2022-09-21T08:33:57;99627.81;;;28.30;31.83
50933;BME280;36921;49.006;9.292;2022-09-21T08:36:23;99639.72;;;27.92;32.38
50933;BME280;36921;49.006;9.292;2022-09-21T08:38:49;99631.03;;;28.18;32.84
50933;BME280;36921;49.006;9.292;2022-09-21T08:41:22;99645.06;;;25.68;34.76
50933;BME280;36921;49.006;9.292;2022-09-21T08:44:02;99617.09;;;25.49;35.79
50933;BME280;36921;49.006;9.292;2022-09-21T08:46:31;99633.59;;;27.18;34.36
50933;BME280;36921;49.006;9.292;2022-09-21T08:49:04;99635.56;;;27.42;34.00
50933;BME280;36921;49.006;9.292;2022-09-21T08:51:35;99624.69;;;27.93;33.25
50933;BME280;36921;49.006;9.292;2022-09-21T08:54:14;99626.28;;;29.08;31.55
50933;BME280;36921;49.006;9.292;2022-09-21T08:56:42;99622.19;;;29.66;30.92
50933;BME280;36921;49.006;9.292;2022-09-21T08:59:11;99620.16;;;29.94;29.90
50933;BME280;36921;49.006;9.292;2022-09-21T09:01:50;99622.44;;;27.47;32.58
50933;BME280;36921;49.006;9.292;2022-09-21T09:04:48;99615.22;;;28.13;33.23
50933;BME280;36921;49.006;9.292;2022-09-21T09:10:35;99614.66;;;25.42;35.15
50933;BME280;36921;49.006;9.292;2022-09-21T09:16:02;99599.66;;;25.48;37.27
50933;BME280;36921;49.006;9.292;2022-09-21T09:18:42;99609.19;;;24.55;37.56
50933;BME280;36921;49.006;9.292;2022-09-21T09:21:15;99610.53;;;23.06;42.10
50933;BME280;36921;49.006;9.292;2022-09-21T09:23:51;99596.09;;;22.07;43.43
50933;BME280;36921;49.006;9.292;2022-09-21T09:26:24;99598.97;;;21.30;44.80
50933;BME280;36921;49.006;9.292;2022-09-21T09:28:54;99603.19;;;21.15;45.75
50933;BME280;36921;49.006;9.292;2022-09-21T09:31:33;99605.31;;;24.71;40.50
50933;BME280;36921;49.006;9.292;2022-09-21T09:34:17;99599.72;;;25.28;37.89
50933;BME280;36921;49.006;9.292;2022-09-21T09:36:50;99594.91;;;26.93;35.28
50933;BME280;36921;49.006;9.292;2022-09-21T09:39:17;99587.16;;;25.56;37.10
50933;BME280;36921;49.006;9.292;2022-09-21T09:50:14;99605.09;;;19.61;47.73
50933;BME280;36921;49.006;9.292;2022-09-21T09:52:46;99608.78;;;19.03;50.03
50933;BME280;36921;49.006;9.292;2022-09-21T09:55:27;99606.78;;;18.45;52.22
50933;BME280;36921;49.006;9.292;2022-09-21T09:57:59;99598.03;;;17.94;54.79
50933;BME280;36921;49.006;9.292;2022-09-21T10:00:25;99601.72;;;17.88;55.27
50933;BME280;36921;49.006;9.292;2022-09-21T10:02:53;99590.94;;;18.05;55.16
50933;BME280;36921;49.006;9.292;2022-09-21T10:07:55;99586.03;;;19.95;50.36
50933;BME280;36921;49.006;9.292;2022-09-21T10:12:53;99584.31;;;19.77;50.00
50933;BME280;36921;49.006;9.292;2022-09-21T10:15:22;99584.88;;;19.27;51.83
50933;BME280;36921;49.006;9.292;2022-09-21T10:18:07;99574.78;;;18.80;53.05
50933;BME280;36921;49.006;9.292;2022-09-21T10:20:38;99582.41;;;19.02;52.52
50933;BME280;36921;49.006;9.292;2022-09-21T10:23:03;99574.88;;;19.21;51.86
50933;BME280;36921;49.006;9.292;2022-09-21T10:25:29;99550.56;;;19.01;51.62
50933;BME280;36921;49.006;9.292;2022-09-21T10:27:55;99557.94;;;18.53;53.99
50933;BME280;36921;49.006;9.292;2022-09-21T10:30:35;99564.81;;;18.44;54.07
50933;BME280;36921;49.006;9.292;2022-09-21T10:33:05;99560.25;;;19.56;50.77
50933;BME280;36921;49.006;9.292;2022-09-21T10:35:48;99566.03;;;19.31;50.05
50933;BME280;36921;49.006;9.292;2022-09-21T10:38:19;99561.66;;;19.18;49.72
50933;BME280;36921;49.006;9.292;2022-09-21T10:40:45;99570.13;;;18.81;51.35
50933;BME280;36921;49.006;9.292;2022-09-21T10:43:24;99556.59;;;20.70;47.56
50933;BME280;36921;49.006;9.292;2022-09-21T10:45:53;99561.53;;;22.91;43.17
50933;BME280;36921;49.006;9.292;2022-09-21T10:48:22;99550.06;;;23.68;41.74
50933;BME280;36921;49.006;9.292;2022-09-21T10:50:49;99556.28;;;22.52;42.47
50933;BME280;36921;49.006;9.292;2022-09-21T10:53:27;99532.53;;;24.35;39.26
50933;BME280;36921;49.006;9.292;2022-09-21T10:56:05;99556.00;;;24.12;39.74
50933;BME280;36921;49.006;9.292;2022-09-21T10:58:32;99536.16;;;24.46;38.10
50933;BME280;36921;49.006;9.292;2022-09-21T11:01:20;99549.94;;;24.92;39.13
50933;BME280;36921;49.006;9.292;2022-09-21T11:03:59;99542.44;;;25.78;38.10
50933;BME280;36921;49.006;9.292;2022-09-21T11:06:51;99543.72;;;25.36;36.81
50933;BME280;36921;49.006;9.292;2022-09-21T11:09:23;99551.22;;;25.35;37.67
50933;BME280;36921;49.006;9.292;2022-09-21T11:12:16;99546.44;;;26.80;35.79
50933;BME280;36921;49.006;9.292;2022-09-21T11:14:48;99542.44;;;27.20;34.17
50933;BME280;36921;49.006;9.292;2022-09-21T11:17:47;99534.75;;;24.64;36.43
50933;BME280;36921;49.006;9.292;2022-09-21T11:20:21;99552.03;;;22.72;39.99
50933;BME280;36921;49.006;9.292;2022-09-21T11:22:59;99540.81;;;21.43;42.44
50933;BME280;36921;49.006;9.292;2022-09-21T11:28:08;99530.16;;;23.60;39.16
50933;BME280;36921;49.006;9.292;2022-09-21T11:33:19;99519.25;;;27.73;33.09
50933;BME280;36921;49.006;9.292;2022-09-21T11:41:31;99519.97;;;25.85;32.36
50933;BME280;36921;49.006;9.292;2022-09-21T11:47:26;99522.50;;;22.08;37.16
50933;BME280;36921;49.006;9.292;2022-09-21T11:49:44;99508.06;;;20.81;39.92
50933;BME280;36921;49.006;9.292;2022-09-21T11:52:48;99512.31;;;19.75;42.25
50933;BME280;36921;49.006;9.292;2022-09-21T12:03:33;99488.09;;;20.51;40.32
50933;BME280;36921;49.006;9.292;2022-09-21T12:08:57;99479.06;;;22.52;35.44
50933;BME280;36921;49.006;9.292;2022-09-21T12:11:45;99497.69;;;24.34;33.50
50933;BME280;36921;49.006;9.292;2022-09-21T12:14:23;99490.91;;;25.77;31.32
50933;BME280;36921;49.006;9.292;2022-09-21T12:17:12;99482.03;;;26.49;30.77
50933;BME280;36921;49.006;9.292;2022-09-21T12:20:02;99486.78;;;26.77;29.79
50933;BME280;36921;49.006;9.292;2022-09-21T12:22:35;99480.50;;;26.66;30.18
50933;BME280;36921;49.006;9.292;2022-09-21T12:25:25;99487.75;;;26.92;28.18
50933;BME280;36921;49.006;9.292;2022-09-21T12:30:32;99479.75;;;27.95;28.37
50933;BME280;36921;49.006;9.292;2022-09-21T12:33:03;99479.13;;;27.98;28.10
50933;BME280;36921;49.006;9.292;2022-09-21T12:35:37;99473.31;;;28.32;27.89
50933;BME280;36921;49.006;9.292;2022-09-21T12:40:46;99478.44;;;28.58;27.77
50933;BME280;36921;49.006;9.292;2022-09-21T12:43:35;99472.22;;;27.95;28.13
50933;BME280;36921;49.006;9.292;2022-09-21T12:46:20;99469.28;;;28.06;28.50
50933;BME280;36921;49.006;9.292;2022-09-21T12:48:47;99475.31;;;27.94;27.56
50933;BME280;36921;49.006;9.292;2022-09-21T12:51:18;99473.56;;;26.35;30.38
50933;BME280;36921;49.006;9.292;2022-09-21T12:53:50;99456.38;;;25.54;29.09
50933;BME280;36921;49.006;9.292;2022-09-21T12:56:27;99470.59;;;24.11;31.74
50933;BME280;36921;49.006;9.292;2022-09-21T13:02:11;99471.59;;;26.06;28.94
50933;BME280;36921;49.006;9.292;2022-09-21T13:05:10;99468.78;;;25.67;29.35
50933;BME280;36921;49.006;9.292;2022-09-21T13:13:02;99468.63;;;24.57;31.85
50933;BME280;36921;49.006;9.292;2022-09-21T13:15:30;99456.13;;;25.55;30.39
50933;BME280;36921;49.006;9.292;2022-09-21T13:18:02;99450.47;;;25.71;29.96
50933;BME280;36921;49.006;9.292;2022-09-21T13:20:38;99462.09;;;25.73;30.97
50933;BME280;36921;49.006;9.292;2022-09-21T13:23:15;99436.06;;;26.08;29.69
50933;BME280;36921;49.006;9.292;2022-09-21T13:25:46;99454.66;;;26.08;29.53
50933;BME280;36921;49.006;9.292;2022-09-21T13:30:44;99461.88;;;22.35;34.71
50933;BME280;36921;49.006;9.292;2022-09-21T13:35:50;99455.44;;;22.62;34.45
50933;BME280;36921;49.006;9.292;2022-09-21T13:38:25;99450.88;;;22.08;34.46
50933;BME280;36921;49.006;9.292;2022-09-21T13:40:57;99459.88;;;21.22;36.33
50933;BME280;36921;49.006;9.292;2022-09-21T13:43:24;99459.13;;;20.10;38.73
50933;BME280;36921;49.006;9.292;2022-09-21T13:49:01;99455.25;;;18.56;41.74
50933;BME280;36921;49.006;9.292;2022-09-21T13:51:31;99460.34;;;18.05;42.57
50933;BME280;36921;49.006;9.292;2022-09-21T13:53:58;99421.66;;;18.25;40.74
50933;BME280;36921;49.006;9.292;2022-09-21T13:56:26;99437.75;;;20.51;36.94
50933;BME280;36921;49.006;9.292;2022-09-21T13:58:54;99430.00;;;21.85;34.61
50933;BME280;36921;49.006;9.292;2022-09-21T14:01:24;99428.84;;;22.45;34.13
50933;BME280;36921;49.006;9.292;2022-09-21T14:03:58;99433.66;;;23.28;33.07
50933;BME280;36921;49.006;9.292;2022-09-21T14:06:32;99416.63;;;24.44;29.50
50933;BME280;36921;49.006;9.292;2022-09-21T14:09:06;99426.84;;;24.43;29.98
50933;BME280;36921;49.006;9.292;2022-09-21T14:11:38;99425.53;;;23.95;31.25
50933;BME280;36921;49.006;9.292;2022-09-21T14:14:14;99416.38;;;23.63;31.97
50933;BME280;36921;49.006;9.292;2022-09-21T14:24:43;99423.56;;;23.75;31.08
50933;BME280;36921;49.006;9.292;2022-09-21T14:32:25;99419.72;;;24.17;30.29
50933;BME280;36921;49.006;9.292;2022-09-21T14:35:00;99410.00;;;23.53;31.83
50933;BME280;36921;49.006;9.292;2022-09-21T14:37:39;99413.88;;;24.39;32.45
50933;BME280;36921;49.006;9.292;2022-09-21T14:40:31;99406.94;;;24.36;33.02
50933;BME280;36921;49.006;9.292;2022-09-21T14:43:00;99401.75;;;24.04;33.73
50933;BME280;36921;49.006;9.292;2022-09-21T14:45:58;99407.81;;;24.21;31.80
50933;BME280;36921;49.006;9.292;2022-09-21T14:51:28;99420.72;;;22.71;32.50
50933;BME280;36921;49.006;9.292;2022-09-21T15:00:05;99420.66;;;18.67;39.85
50933;BME280;36921;49.006;9.292;2022-09-21T15:02:39;99413.69;;;18.00;40.10
50933;BME280;36921;49.006;9.292;2022-09-21T15:05:31;99421.53;;;17.55;41.37
50933;BME280;36921;49.006;9.292;2022-09-21T15:11:08;99417.63;;;17.02;42.32
50933;BME280;36921;49.006;9.292;2022-09-21T15:16:33;99399.50;;;19.02;38.56
50933;BME280;36921;49.006;9.292;2022-09-21T15:19:20;99393.19;;;19.93;37.51
50933;BME280;36921;49.006;9.292;2022-09-21T15:22:17;99385.97;;;20.43;35.45
50933;BME280;36921;49.006;9.292;2022-09-21T15:24:52;99388.41;;;20.78;34.78
50933;BME280;36921;49.006;9.292;2022-09-21T15:27:19;99370.34;;;20.87;34.76
50933;BME280;36921;49.006;9.292;2022-09-21T15:29:47;99376.13;;;21.13;33.57
50933;BME280;36921;49.006;9.292;2022-09-21T15:32:30;99387.09;;;21.35;33.40
50933;BME280;36921;49.006;9.292;2022-09-21T15:35:11;99397.53;;;20.84;33.92
50933;BME280;36921;49.006;9.292;2022-09-21T15:37:40;99384.03;;;20.60;34.57